sensor_id;sensor_type;location;lat;lon;timestamp;P1;P2;P0
45788;PMS7003;31492;54.856;26.318;2023-06-19T03:12:00;19.9;18.8;14.6
45788;PMS7003;31492;54.856;26.318;2023-06-19T03:37:06;29.8;26.9;19.8
45788;PMS7003;31492;54.856;26.318;2023-06-19T03:41:44;32.4;28.4;20.5
45788;PMS7003;31492;54.856;26.318;2023-06-19T03:46:44;31.8;27.7;20.3
45788;PMS7003;31492;54.856;26.318;2023-06-19T03:52:00;31.2;28;20.5
45788;PMS7003;31492;54.856;26.318;2023-06-19T03:56:52;31.6;28;20.5
45788;PMS7003;31492;54.856;26.318;2023-06-19T04:01:44;31.3;27.7;19.9
45788;PMS7003;31492;54.856;26.318;2023-06-19T04:07:24;32.4;29.1;20.8
45788;PMS7003;31492;54.856;26.318;2023-06-19T04:11:56;28.1;25.8;19.3
45788;PMS7003;31492;54.856;26.318;2023-06-19T04:17:08;29.5;26.6;19.9
45788;PMS7003;31492;54.856;26.318;2023-06-19T04:22:20;30.1;27.6;20.3
45788;PMS7003;31492;54.856;26.318;2023-06-19T04:26:54;28;25.5;18.3
45788;PMS7003;31492;54.856;26.318;2023-06-19T04:31:54;31.2;27.7;20.3
45788;PMS7003;31492;54.856;26.318;2023-06-19T04:36:44;32.2;28.6;20.4
45788;PMS7003;31492;54.856;26.318;2023-06-19T04:41:44;30.3;28.2;20.3
45788;PMS7003;31492;54.856;26.318;2023-06-19T04:47:16;28.6;26.6;19.8
45788;PMS7003;31492;54.856;26.318;2023-06-19T04:52:14;30.6;27.5;19.8
45788;PMS7003;31492;54.856;26.318;2023-06-19T04:57:00;31.3;27.7;19.6
45788;PMS7003;31492;54.856;26.318;2023-06-19T05:01:44;30;27.2;20.2
45788;PMS7003;31492;54.856;26.318;2023-06-19T05:26:44;30.1;27.2;19.6
45788;PMS7003;31492;54.856;26.318;2023-06-19T05:32:12;28.7;26.4;19
45788;PMS7003;31492;54.856;26.318;2023-06-19T05:36:44;29;26.7;20.1
45788;PMS7003;31492;54.856;26.318;2023-06-19T05:41:44;32.9;28.4;20.2
45788;PMS7003;31492;54.856;26.318;2023-06-19T05:47:00;32.8;29.4;21
45788;PMS7003;31492;54.856;26.318;2023-06-19T05:51:45;33.8;30;21.1
45788;PMS7003;31492;54.856;26.318;2023-06-19T05:56:44;32.9;29.7;21.6
45788;PMS7003;31492;54.856;26.318;2023-06-19T06:02:20;30.8;28.1;20.6
45788;PMS7003;31492;54.856;26.318;2023-06-19T06:06:44;32.1;28.6;20.6
45788;PMS7003;31492;54.856;26.318;2023-06-19T06:11:59;33.5;29.3;21
45788;PMS7003;31492;54.856;26.318;2023-06-19T06:17:00;35.9;31.4;22.2
45788;PMS7003;31492;54.856;26.318;2023-06-19T06:21:44;33.9;31.2;22.4
45788;PMS7003;31492;54.856;26.318;2023-06-19T06:26:44;34;30.3;21.6
45788;PMS7003;31492;54.856;26.318;2023-06-19T06:31:45;34.8;30.1;21.4
45788;PMS7003;31492;54.856;26.318;2023-06-19T06:36:44;35.2;30;21.4
45788;PMS7003;31492;54.856;26.318;2023-06-19T06:41:44;33.5;30;21.5
45788;PMS7003;31492;54.856;26.318;2023-06-19T06:46:44;32.3;29.4;21.1
45788;PMS7003;31492;54.856;26.318;2023-06-19T06:51:56;34;30.4;21.6
45788;PMS7003;31492;54.856;26.318;2023-06-19T06:56:52;33.9;29.9;21.1
45788;PMS7003;31492;54.856;26.318;2023-06-19T07:01:54;32.4;28.8;21.4
45788;PMS7003;31492;54.856;26.318;2023-06-19T07:22:03;31.8;30.2;21.1
45788;PMS7003;31492;54.856;26.318;2023-06-19T07:27:00;34.8;30.5;21.4
45788;PMS7003;31492;54.856;26.318;2023-06-19T09:42:24;34.8;30.5;21.4
45788;PMS7003;31492;54.856;26.318;2023-06-19T11:17:05;35.2;30.8;22.5
45788;PMS7003;31492;54.856;26.318;2023-06-19T12:26:59;30.8;27.2;20.6
45788;PMS7003;31492;54.856;26.318;2023-06-19T15:06:45;29.3;27.5;20.4
45788;PMS7003;31492;54.856;26.318;2023-06-19T15:11:59;22.6;20.3;16.3
45788;PMS7003;31492;54.856;26.318;2023-06-19T15:16:45;23.1;21.6;16.7
45788;PMS7003;31492;54.856;26.318;2023-06-19T15:21:45;17.1;15.7;12.5
45788;PMS7003;31492;54.856;26.318;2023-06-19T15:26:45;9.9;7.9;6.1
45788;PMS7003;31492;54.856;26.318;2023-06-19T15:31:45;5.8;4.6;3.5
45788;PMS7003;31492;54.856;26.318;2023-06-19T15:36:55;7.3;6.5;4.9
45788;PMS7003;31492;54.856;26.318;2023-06-19T15:42:11;11.7;10.1;7.9
45788;PMS7003;31492;54.856;26.318;2023-06-19T15:46:53;12;10.4;7.9
45788;PMS7003;31492;54.856;26.318;2023-06-19T15:51:53;11.4;10.5;8.1
45788;PMS7003;31492;54.856;26.318;2023-06-19T15:57:01;15.5;14.2;11
45788;PMS7003;31492;54.856;26.318;2023-06-19T16:01:45;17.2;15.6;12
45788;PMS7003;31492;54.856;26.318;2023-06-19T16:07:13;16.4;14.5;11
45788;PMS7003;31492;54.856;26.318;2023-06-19T16:11:45;17.3;15.7;12.1
45788;PMS7003;31492;54.856;26.318;2023-06-19T16:16:55;17.5;15.7;11.6
45788;PMS7003;31492;54.856;26.318;2023-06-19T16:21:59;17.8;16.6;12.1
45788;PMS7003;31492;54.856;26.318;2023-06-19T16:26:45;15.7;14.3;11.1
45788;PMS7003;31492;54.856;26.318;2023-06-19T16:32:19;14.3;13.3;10.1
45788;PMS7003;31492;54.856;26.318;2023-06-19T16:37:01;14.2;12.7;9.8
45788;PMS7003;31492;54.856;26.318;2023-06-19T16:41:45;17.4;15.2;11.6
45788;PMS7003;31492;54.856;26.318;2023-06-19T16:47:05;17;14.8;11.3
45788;PMS7003;31492;54.856;26.318;2023-06-19T16:52:03;17.2;14.9;11.3
45788;PMS7003;31492;54.856;26.318;2023-06-19T16:56:45;17.7;15.8;11.8
45788;PMS7003;31492;54.856;26.318;2023-06-19T17:02:09;17;14.4;10.9
45788;PMS7003;31492;54.856;26.318;2023-06-19T17:06:53;18.8;15.5;11.6
45788;PMS7003;31492;54.856;26.318;2023-06-19T17:11:45;17.8;15.9;12.1
45788;PMS7003;31492;54.856;26.318;2023-06-19T17:17:01;19.7;17.1;12.6
45788;PMS7003;31492;54.856;26.318;2023-06-19T17:21:45;20.1;17.2;12.9
45788;PMS7003;31492;54.856;26.318;2023-06-19T17:26:53;20.4;17.8;13
45788;PMS7003;31492;54.856;26.318;2023-06-19T17:32:05;18.6;16.9;12.7
45788;PMS7003;31492;54.856;26.318;2023-06-19T19:21:45;21.4;17.3;12.7
45788;PMS7003;31492;54.856;26.318;2023-06-19T19:26:53;24.8;22.8;16.5
45788;PMS7003;31492;54.856;26.318;2023-06-19T19:32:01;28.5;24.4;16.9
45788;PMS7003;31492;54.856;26.318;2023-06-19T19:36:45;26.4;25.1;18.3
45788;PMS7003;31492;54.856;26.318;2023-06-19T19:41:47;28.8;25.3;17.9
45788;PMS7003;31492;54.856;26.318;2023-06-19T19:46:45;30.2;25.9;17.7
45788;PMS7003;31492;54.856;26.318;2023-06-19T19:51:45;30.1;25.8;17.6
45788;PMS7003;31492;54.856;26.318;2023-06-19T19:57:02;30;26.8;18.5
45788;PMS7003;31492;54.856;26.318;2023-06-19T20:21:57;35.5;28.9;19.9
45788;PMS7003;31492;54.856;26.318;2023-06-19T20:32:11;30.1;27;18.1
45788;PMS7003;31492;54.856;26.318;2023-06-19T20:37:01;33.5;28.6;19.2
45788;PMS7003;31492;54.856;26.318;2023-06-19T20:41:45;34;28.1;19.8
45788;PMS7003;31492;54.856;26.318;2023-06-19T20:46:45;31.3;27.4;19.1
45788;PMS7003;31492;54.856;26.318;2023-06-19T20:51:55;32.3;28.5;19.4
45788;PMS7003;31492;54.856;26.318;2023-06-19T20:56:45;33;28.5;19.8
45788;PMS7003;31492;54.856;26.318;2023-06-19T21:01:59;35.4;30.1;20.3
45788;PMS7003;31492;54.856;26.318;2023-06-19T21:06:45;35.4;29.3;20.3
45788;PMS7003;31492;54.856;26.318;2023-06-19T21:12:13;35;29.3;19.9
45788;PMS7003;31492;54.856;26.318;2023-06-19T21:17:11;34.6;29.2;20.1
45788;PMS7003;31492;54.856;26.318;2023-06-19T21:26:45;37.9;31.8;21.3
45788;PMS7003;31492;54.856;26.318;2023-06-19T21:31:55;32.9;29.3;19.8
